sensor_id;sensor_type;location;lat;lon;timestamp;P1;durP1;ratioP1;P2;durP2;ratioP2
16770;SDS011;8503;52.472;13.344;2022-12-17T00:00:39;56.42;;;22.20;;
16770;SDS011;8503;52.472;13.344;2022-12-17T00:02:20;66.72;;;22.33;;
16770;SDS011;8503;52.472;13.344;2022-12-17T00:04:01;55.28;;;21.67;;
16770;SDS011;8503;52.472;13.344;2022-12-17T00:05:42;58.07;;;20.87;;
16770;SDS011;8503;52.472;13.344;2022-12-17T00:07:25;53.22;;;20.70;;
16770;SDS011;8503;52.472;13.344;2022-12-17T00:09:05;61.38;;;22.90;;
16770;SDS011;8503;52.472;13.344;2022-12-17T00:10:47;53.00;;;19.20;;
16770;SDS011;8503;52.472;13.344;2022-12-17T00:12:28;56.50;;;21.25;;
16770;SDS011;8503;52.472;13.344;2022-12-17T00:14:17;55.15;;;19.60;;
16770;SDS011;8503;52.472;13.344;2022-12-17T00:16:00;63.28;;;22.20;;
16770;SDS011;8503;52.472;13.344;2022-12-17T00:17:41;53.08;;;21.33;;
16770;SDS011;8503;52.472;13.344;2022-12-17T00:19:22;48.03;;;21.63;;
16770;SDS011;8503;52.472;13.344;2022-12-17T00:21:03;55.67;;;21.33;;
16770;SDS011;8503;52.472;13.344;2022-12-17T00:22:45;66.03;;;22.90;;
16770;SDS011;8503;52.472;13.344;2022-12-17T00:24:26;58.30;;;20.52;;
16770;SDS011;8503;52.472;13.344;2022-12-17T00:26:07;49.33;;;20.95;;
16770;SDS011;8503;52.472;13.344;2022-12-17T00:27:48;57.97;;;20.35;;
16770;SDS011;8503;52.472;13.344;2022-12-17T00:29:29;52.72;;;19.80;;
16770;SDS011;8503;52.472;13.344;2022-12-17T00:31:10;45.78;;;19.80;;
16770;SDS011;8503;52.472;13.344;2022-12-17T00:32:51;45.80;;;19.52;;
16770;SDS011;8503;52.472;13.344;2022-12-17T00:34:33;50.00;;;17.95;;
16770;SDS011;8503;52.472;13.344;2022-12-17T00:36:13;46.33;;;17.85;;
16770;SDS011;8503;52.472;13.344;2022-12-17T00:37:56;41.55;;;15.95;;
16770;SDS011;8503;52.472;13.344;2022-12-17T00:39:37;38.55;;;16.67;;
16770;SDS011;8503;52.472;13.344;2022-12-17T00:41:19;41.27;;;18.03;;
16770;SDS011;8503;52.472;13.344;2022-12-17T00:43:00;38.78;;;15.02;;
16770;SDS011;8503;52.472;13.344;2022-12-17T00:44:42;34.45;;;15.23;;
16770;SDS011;8503;52.472;13.344;2022-12-17T00:46:23;43.43;;;16.90;;
16770;SDS011;8503;52.472;13.344;2022-12-17T00:48:04;43.38;;;17.38;;
16770;SDS011;8503;52.472;13.344;2022-12-17T00:49:45;44.70;;;17.35;;
16770;SDS011;8503;52.472;13.344;2022-12-17T00:51:26;45.30;;;17.38;;
16770;SDS011;8503;52.472;13.344;2022-12-17T00:53:08;40.38;;;16.42;;
16770;SDS011;8503;52.472;13.344;2022-12-17T00:54:49;36.67;;;15.93;;
16770;SDS011;8503;52.472;13.344;2022-12-17T00:56:30;52.58;;;17.13;;
16770;SDS011;8503;52.472;13.344;2022-12-17T00:58:12;48.25;;;19.88;;
16770;SDS011;8503;52.472;13.344;2022-12-17T00:59:53;44.08;;;17.65;;
16770;SDS011;8503;52.472;13.344;2022-12-17T01:01:34;52.38;;;18.65;;
16770;SDS011;8503;52.472;13.344;2022-12-17T01:03:17;44.00;;;17.90;;
16770;SDS011;8503;52.472;13.344;2022-12-17T01:04:58;46.20;;;17.27;;
16770;SDS011;8503;52.472;13.344;2022-12-17T01:06:39;50.40;;;18.70;;
16770;SDS011;8503;52.472;13.344;2022-12-17T01:08:22;50.75;;;17.83;;
16770;SDS011;8503;52.472;13.344;2022-12-17T01:10:03;51.77;;;18.93;;
16770;SDS011;8503;52.472;13.344;2022-12-17T01:11:45;47.95;;;18.15;;
16770;SDS011;8503;52.472;13.344;2022-12-17T01:13:26;44.65;;;18.77;;
16770;SDS011;8503;52.472;13.344;2022-12-17T01:15:07;51.50;;;18.80;;
16770;SDS011;8503;52.472;13.344;2022-12-17T01:16:48;49.83;;;18.10;;
16770;SDS011;8503;52.472;13.344;2022-12-17T01:18:30;46.70;;;17.97;;
16770;SDS011;8503;52.472;13.344;2022-12-17T01:20:11;39.78;;;16.13;;
16770;SDS011;8503;52.472;13.344;2022-12-17T01:21:52;44.10;;;18.30;;
16770;SDS011;8503;52.472;13.344;2022-12-17T01:23:34;47.53;;;18.07;;
16770;SDS011;8503;52.472;13.344;2022-12-17T01:25:16;57.28;;;18.63;;
16770;SDS011;8503;52.472;13.344;2022-12-17T01:26:57;54.13;;;19.70;;
16770;SDS011;8503;52.472;13.344;2022-12-17T01:28:38;51.87;;;17.83;;
16770;SDS011;8503;52.472;13.344;2022-12-17T01:30:19;51.70;;;18.20;;
16770;SDS011;8503;52.472;13.344;2022-12-17T01:32:00;50.73;;;18.13;;
16770;SDS011;8503;52.472;13.344;2022-12-17T01:33:41;51.85;;;18.33;;
16770;SDS011;8503;52.472;13.344;2022-12-17T01:35:22;61.30;;;18.95;;
16770;SDS011;8503;52.472;13.344;2022-12-17T01:37:03;55.15;;;20.13;;
16770;SDS011;8503;52.472;13.344;2022-12-17T01:38:45;46.72;;;17.50;;
16770;SDS011;8503;52.472;13.344;2022-12-17T01:40:26;50.95;;;18.60;;
16770;SDS011;8503;52.472;13.344;2022-12-17T01:42:09;46.88;;;18.27;;
16770;SDS011;8503;52.472;13.344;2022-12-17T01:43:50;50.80;;;17.42;;
16770;SDS011;8503;52.472;13.344;2022-12-17T01:45:32;58.15;;;19.08;;
16770;SDS011;8503;52.472;13.344;2022-12-17T01:47:12;57.70;;;22.67;;
16770;SDS011;8503;52.472;13.344;2022-12-17T01:48:52;56.30;;;20.55;;
16770;SDS011;8503;52.472;13.344;2022-12-17T01:50:35;66.43;;;22.92;;
16770;SDS011;8503;52.472;13.344;2022-12-17T01:52:17;54.00;;;20.25;;
16770;SDS011;8503;52.472;13.344;2022-12-17T01:53:59;48.42;;;19.92;;
16770;SDS011;8503;52.472;13.344;2022-12-17T01:55:40;58.97;;;20.02;;
16770;SDS011;8503;52.472;13.344;2022-12-17T01:57:21;54.50;;;18.92;;
16770;SDS011;8503;52.472;13.344;2022-12-17T01:59:03;47.97;;;18.75;;
16770;SDS011;8503;52.472;13.344;2022-12-17T02:00:45;50.47;;;16.27;;
16770;SDS011;8503;52.472;13.344;2022-12-17T02:02:41;45.80;;;17.65;;
16770;SDS011;8503;52.472;13.344;2022-12-17T02:04:22;49.45;;;17.92;;
16770;SDS011;8503;52.472;13.344;2022-12-17T02:06:05;55.13;;;20.90;;
16770;SDS011;8503;52.472;13.344;2022-12-17T02:07:51;46.05;;;17.63;;
16770;SDS011;8503;52.472;13.344;2022-12-17T02:09:37;46.30;;;18.20;;
16770;SDS011;8503;52.472;13.344;2022-12-17T02:11:23;52.17;;;17.98;;
16770;SDS011;8503;52.472;13.344;2022-12-17T02:13:09;40.15;;;18.58;;
16770;SDS011;8503;52.472;13.344;2022-12-17T02:14:56;53.60;;;18.40;;
16770;SDS011;8503;52.472;13.344;2022-12-17T02:16:40;53.08;;;18.88;;
16770;SDS011;8503;52.472;13.344;2022-12-17T02:18:26;48.95;;;19.30;;
16770;SDS011;8503;52.472;13.344;2022-12-17T02:20:13;48.67;;;17.23;;
16770;SDS011;8503;52.472;13.344;2022-12-17T02:22:00;50.65;;;18.52;;
16770;SDS011;8503;52.472;13.344;2022-12-17T02:23:47;42.45;;;18.25;;
16770;SDS011;8503;52.472;13.344;2022-12-17T02:25:38;46.83;;;16.80;;
16770;SDS011;8503;52.472;13.344;2022-12-17T02:27:24;47.85;;;18.10;;
16770;SDS011;8503;52.472;13.344;2022-12-17T02:29:05;57.92;;;19.33;;
16770;SDS011;8503;52.472;13.344;2022-12-17T02:30:47;57.50;;;18.67;;
16770;SDS011;8503;52.472;13.344;2022-12-17T02:32:29;49.45;;;16.92;;
16770;SDS011;8503;52.472;13.344;2022-12-17T02:34:11;42.33;;;17.52;;
16770;SDS011;8503;52.472;13.344;2022-12-17T02:35:54;50.03;;;18.25;;
16770;SDS011;8503;52.472;13.344;2022-12-17T02:37:38;49.17;;;18.35;;
16770;SDS011;8503;52.472;13.344;2022-12-17T02:39:24;47.38;;;18.70;;
16770;SDS011;8503;52.472;13.344;2022-12-17T02:41:05;51.55;;;18.58;;
16770;SDS011;8503;52.472;13.344;2022-12-17T02:42:48;52.47;;;19.38;;
16770;SDS011;8503;52.472;13.344;2022-12-17T02:44:30;46.55;;;15.77;;
16770;SDS011;8503;52.472;13.344;2022-12-17T02:46:11;40.53;;;16.80;;
16770;SDS011;8503;52.472;13.344;2022-12-17T02:47:52;44.55;;;17.80;;
16770;SDS011;8503;52.472;13.344;2022-12-17T02:49:36;57.43;;;18.27;;
16770;SDS011;8503;52.472;13.344;2022-12-17T02:51:17;44.08;;;14.55;;
16770;SDS011;8503;52.472;13.344;2022-12-17T02:52:58;47.65;;;15.75;;
16770;SDS011;8503;52.472;13.344;2022-12-17T02:54:41;37.65;;;13.98;;
16770;SDS011;8503;52.472;13.344;2022-12-17T02:56:36;35.65;;;15.00;;
16770;SDS011;8503;52.472;13.344;2022-12-17T02:58:19;46.92;;;15.57;;
16770;SDS011;8503;52.472;13.344;2022-12-17T03:00:01;46.88;;;17.30;;
16770;SDS011;8503;52.472;13.344;2022-12-17T03:01:42;40.08;;;15.15;;
16770;SDS011;8503;52.472;13.344;2022-12-17T03:03:23;38.88;;;15.05;;
16770;SDS011;8503;52.472;13.344;2022-12-17T03:05:10;42.03;;;16.48;;
16770;SDS011;8503;52.472;13.344;2022-12-17T03:07:07;43.50;;;15.60;;
16770;SDS011;8503;52.472;13.344;2022-12-17T03:08:47;41.45;;;16.98;;
16770;SDS011;8503;52.472;13.344;2022-12-17T03:10:28;39.08;;;15.65;;
16770;SDS011;8503;52.472;13.344;2022-12-17T03:12:09;45.42;;;16.73;;
16770;SDS011;8503;52.472;13.344;2022-12-17T03:13:52;36.83;;;15.27;;
16770;SDS011;8503;52.472;13.344;2022-12-17T03:15:32;45.45;;;16.67;;
16770;SDS011;8503;52.472;13.344;2022-12-17T03:17:13;36.58;;;14.00;;
16770;SDS011;8503;52.472;13.344;2022-12-17T03:18:54;40.22;;;14.25;;
16770;SDS011;8503;52.472;13.344;2022-12-17T03:20:35;29.90;;;12.77;;
16770;SDS011;8503;52.472;13.344;2022-12-17T03:22:16;37.17;;;14.07;;
16770;SDS011;8503;52.472;13.344;2022-12-17T03:23:57;32.88;;;13.10;;
16770;SDS011;8503;52.472;13.344;2022-12-17T03:25:38;36.78;;;13.00;;
16770;SDS011;8503;52.472;13.344;2022-12-17T03:27:19;46.03;;;15.20;;
16770;SDS011;8503;52.472;13.344;2022-12-17T03:29:02;32.80;;;13.32;;
16770;SDS011;8503;52.472;13.344;2022-12-17T03:30:42;32.30;;;13.38;;
16770;SDS011;8503;52.472;13.344;2022-12-17T03:32:24;33.35;;;13.27;;
16770;SDS011;8503;52.472;13.344;2022-12-17T03:34:05;29.90;;;12.27;;
16770;SDS011;8503;52.472;13.344;2022-12-17T03:35:51;28.27;;;12.27;;
16770;SDS011;8503;52.472;13.344;2022-12-17T03:37:32;26.70;;;11.67;;
16770;SDS011;8503;52.472;13.344;2022-12-17T03:39:13;33.63;;;13.43;;
16770;SDS011;8503;52.472;13.344;2022-12-17T03:40:55;32.55;;;12.55;;
16770;SDS011;8503;52.472;13.344;2022-12-17T03:42:36;34.47;;;12.50;;
16770;SDS011;8503;52.472;13.344;2022-12-17T03:44:18;26.63;;;10.47;;
16770;SDS011;8503;52.472;13.344;2022-12-17T03:45:59;23.30;;;10.07;;
16770;SDS011;8503;52.472;13.344;2022-12-17T03:47:40;24.17;;;11.55;;
16770;SDS011;8503;52.472;13.344;2022-12-17T03:49:21;26.70;;;10.37;;
16770;SDS011;8503;52.472;13.344;2022-12-17T03:51:02;29.20;;;10.70;;
16770;SDS011;8503;52.472;13.344;2022-12-17T03:52:43;29.73;;;12.13;;
16770;SDS011;8503;52.472;13.344;2022-12-17T03:54:24;24.27;;;11.13;;
16770;SDS011;8503;52.472;13.344;2022-12-17T03:56:17;27.67;;;10.55;;
16770;SDS011;8503;52.472;13.344;2022-12-17T03:57:57;26.92;;;9.65;;
16770;SDS011;8503;52.472;13.344;2022-12-17T03:59:36;26.95;;;12.43;;
16770;SDS011;8503;52.472;13.344;2022-12-17T04:01:17;28.13;;;10.65;;
16770;SDS011;8503;52.472;13.344;2022-12-17T04:02:58;30.23;;;11.73;;
16770;SDS011;8503;52.472;13.344;2022-12-17T04:04:39;25.67;;;11.30;;
16770;SDS011;8503;52.472;13.344;2022-12-17T04:06:20;31.23;;;11.75;;
16770;SDS011;8503;52.472;13.344;2022-12-17T04:08:01;22.08;;;10.05;;
16770;SDS011;8503;52.472;13.344;2022-12-17T04:09:42;28.63;;;11.68;;
16770;SDS011;8503;52.472;13.344;2022-12-17T04:11:26;23.23;;;10.32;;
16770;SDS011;8503;52.472;13.344;2022-12-17T04:13:07;26.03;;;9.73;;
16770;SDS011;8503;52.472;13.344;2022-12-17T04:14:49;24.40;;;9.87;;
16770;SDS011;8503;52.472;13.344;2022-12-17T04:16:30;28.75;;;11.18;;
16770;SDS011;8503;52.472;13.344;2022-12-17T04:18:11;29.10;;;11.15;;
16770;SDS011;8503;52.472;13.344;2022-12-17T04:19:52;25.85;;;9.40;;
16770;SDS011;8503;52.472;13.344;2022-12-17T04:21:33;29.10;;;11.23;;
16770;SDS011;8503;52.472;13.344;2022-12-17T04:23:14;26.90;;;11.23;;
16770;SDS011;8503;52.472;13.344;2022-12-17T04:24:56;24.65;;;10.50;;
16770;SDS011;8503;52.472;13.344;2022-12-17T04:26:37;21.63;;;10.90;;
16770;SDS011;8503;52.472;13.344;2022-12-17T04:28:18;23.73;;;11.55;;
16770;SDS011;8503;52.472;13.344;2022-12-17T04:30:00;27.90;;;11.35;;
16770;SDS011;8503;52.472;13.344;2022-12-17T04:31:41;25.58;;;11.23;;
16770;SDS011;8503;52.472;13.344;2022-12-17T04:33:22;24.70;;;10.60;;
16770;SDS011;8503;52.472;13.344;2022-12-17T04:35:03;29.23;;;11.20;;
16770;SDS011;8503;52.472;13.344;2022-12-17T04:36:50;27.80;;;9.95;;
16770;SDS011;8503;52.472;13.344;2022-12-17T04:38:31;30.45;;;11.57;;
16770;SDS011;8503;52.472;13.344;2022-12-17T04:40:27;27.35;;;11.35;;
16770;SDS011;8503;52.472;13.344;2022-12-17T04:42:07;26.17;;;12.05;;
16770;SDS011;8503;52.472;13.344;2022-12-17T04:43:49;25.60;;;11.02;;
16770;SDS011;8503;52.472;13.344;2022-12-17T04:45:33;33.70;;;10.35;;
16770;SDS011;8503;52.472;13.344;2022-12-17T04:47:16;26.10;;;9.75;;
16770;SDS011;8503;52.472;13.344;2022-12-17T04:48:57;23.73;;;10.07;;
16770;SDS011;8503;52.472;13.344;2022-12-17T04:50:38;26.88;;;10.60;;
16770;SDS011;8503;52.472;13.344;2022-12-17T04:52:19;25.63;;;11.38;;
16770;SDS011;8503;52.472;13.344;2022-12-17T04:54:00;27.23;;;10.40;;
16770;SDS011;8503;52.472;13.344;2022-12-17T04:55:42;28.77;;;10.05;;
16770;SDS011;8503;52.472;13.344;2022-12-17T04:57:23;22.98;;;10.27;;
16770;SDS011;8503;52.472;13.344;2022-12-17T04:59:03;25.30;;;10.52;;
16770;SDS011;8503;52.472;13.344;2022-12-17T05:00:46;31.85;;;12.00;;
16770;SDS011;8503;52.472;13.344;2022-12-17T05:02:27;30.23;;;10.35;;
16770;SDS011;8503;52.472;13.344;2022-12-17T05:04:08;31.25;;;9.27;;
16770;SDS011;8503;52.472;13.344;2022-12-17T05:05:50;21.67;;;10.57;;
16770;SDS011;8503;52.472;13.344;2022-12-17T05:07:31;29.30;;;10.65;;
16770;SDS011;8503;52.472;13.344;2022-12-17T05:09:12;24.33;;;10.55;;
16770;SDS011;8503;52.472;13.344;2022-12-17T05:10:53;29.43;;;10.93;;
16770;SDS011;8503;52.472;13.344;2022-12-17T05:12:34;28.75;;;11.25;;
16770;SDS011;8503;52.472;13.344;2022-12-17T05:14:15;31.52;;;10.90;;
16770;SDS011;8503;52.472;13.344;2022-12-17T05:15:57;33.50;;;11.40;;
16770;SDS011;8503;52.472;13.344;2022-12-17T05:17:38;31.67;;;11.07;;
16770;SDS011;8503;52.472;13.344;2022-12-17T05:19:28;27.53;;;11.20;;
16770;SDS011;8503;52.472;13.344;2022-12-17T05:21:09;29.15;;;11.63;;
16770;SDS011;8503;52.472;13.344;2022-12-17T05:22:53;31.48;;;11.38;;
16770;SDS011;8503;52.472;13.344;2022-12-17T05:24:34;25.77;;;10.50;;
16770;SDS011;8503;52.472;13.344;2022-12-17T05:26:17;25.45;;;10.88;;
16770;SDS011;8503;52.472;13.344;2022-12-17T05:27:59;27.52;;;10.15;;
16770;SDS011;8503;52.472;13.344;2022-12-17T05:29:39;23.13;;;9.95;;
16770;SDS011;8503;52.472;13.344;2022-12-17T05:31:22;25.80;;;9.95;;
16770;SDS011;8503;52.472;13.344;2022-12-17T05:33:08;24.83;;;10.57;;
16770;SDS011;8503;52.472;13.344;2022-12-17T05:34:49;25.52;;;10.27;;
16770;SDS011;8503;52.472;13.344;2022-12-17T05:36:29;29.45;;;9.73;;
16770;SDS011;8503;52.472;13.344;2022-12-17T05:38:11;22.77;;;9.60;;
16770;SDS011;8503;52.472;13.344;2022-12-17T05:39:52;27.30;;;10.55;;
16770;SDS011;8503;52.472;13.344;2022-12-17T05:41:33;20.25;;;9.60;;
16770;SDS011;8503;52.472;13.344;2022-12-17T05:43:14;29.40;;;10.47;;
16770;SDS011;8503;52.472;13.344;2022-12-17T05:44:55;25.25;;;8.98;;
16770;SDS011;8503;52.472;13.344;2022-12-17T05:46:38;24.38;;;9.98;;
16770;SDS011;8503;52.472;13.344;2022-12-17T05:48:19;20.00;;;8.68;;
16770;SDS011;8503;52.472;13.344;2022-12-17T05:50:00;21.80;;;9.33;;
16770;SDS011;8503;52.472;13.344;2022-12-17T05:51:41;24.27;;;9.73;;
16770;SDS011;8503;52.472;13.344;2022-12-17T05:53:22;25.70;;;10.00;;
16770;SDS011;8503;52.472;13.344;2022-12-17T05:55:03;22.43;;;10.37;;
16770;SDS011;8503;52.472;13.344;2022-12-17T05:56:44;31.40;;;10.95;;
16770;SDS011;8503;52.472;13.344;2022-12-17T05:58:25;25.33;;;9.77;;
16770;SDS011;8503;52.472;13.344;2022-12-17T06:00:07;23.03;;;9.87;;
16770;SDS011;8503;52.472;13.344;2022-12-17T06:01:50;24.53;;;9.53;;
16770;SDS011;8503;52.472;13.344;2022-12-17T06:03:30;22.60;;;10.00;;
16770;SDS011;8503;52.472;13.344;2022-12-17T06:05:12;26.20;;;10.67;;
16770;SDS011;8503;52.472;13.344;2022-12-17T06:06:53;24.58;;;9.75;;
16770;SDS011;8503;52.472;13.344;2022-12-17T06:08:34;20.27;;;9.35;;
16770;SDS011;8503;52.472;13.344;2022-12-17T06:10:15;19.98;;;8.68;;
16770;SDS011;8503;52.472;13.344;2022-12-17T06:11:56;21.13;;;9.15;;
16770;SDS011;8503;52.472;13.344;2022-12-17T06:13:37;18.00;;;9.18;;
16770;SDS011;8503;52.472;13.344;2022-12-17T06:15:17;27.40;;;9.95;;
16770;SDS011;8503;52.472;13.344;2022-12-17T06:17:00;22.05;;;8.93;;
16770;SDS011;8503;52.472;13.344;2022-12-17T06:18:41;26.05;;;9.15;;
16770;SDS011;8503;52.472;13.344;2022-12-17T06:20:22;21.57;;;9.40;;
16770;SDS011;8503;52.472;13.344;2022-12-17T06:22:03;25.50;;;10.00;;
16770;SDS011;8503;52.472;13.344;2022-12-17T06:23:44;19.83;;;8.98;;
16770;SDS011;8503;52.472;13.344;2022-12-17T06:25:25;19.88;;;9.60;;
16770;SDS011;8503;52.472;13.344;2022-12-17T06:27:06;19.50;;;8.88;;
16770;SDS011;8503;52.472;13.344;2022-12-17T06:28:47;20.50;;;10.32;;
16770;SDS011;8503;52.472;13.344;2022-12-17T06:30:28;25.77;;;10.68;;
16770;SDS011;8503;52.472;13.344;2022-12-17T06:32:12;24.92;;;10.90;;
16770;SDS011;8503;52.472;13.344;2022-12-17T06:33:53;26.05;;;11.32;;
16770;SDS011;8503;52.472;13.344;2022-12-17T06:35:34;28.17;;;10.95;;
16770;SDS011;8503;52.472;13.344;2022-12-17T06:37:15;26.52;;;9.55;;
16770;SDS011;8503;52.472;13.344;2022-12-17T06:38:56;25.08;;;9.93;;
16770;SDS011;8503;52.472;13.344;2022-12-17T06:40:37;28.30;;;10.18;;
16770;SDS011;8503;52.472;13.344;2022-12-17T06:42:18;27.98;;;10.82;;
16770;SDS011;8503;52.472;13.344;2022-12-17T06:43:59;23.60;;;11.25;;
16770;SDS011;8503;52.472;13.344;2022-12-17T06:45:40;28.85;;;11.48;;
16770;SDS011;8503;52.472;13.344;2022-12-17T06:47:22;24.25;;;10.43;;
16770;SDS011;8503;52.472;13.344;2022-12-17T06:49:03;26.25;;;10.93;;
16770;SDS011;8503;52.472;13.344;2022-12-17T06:50:44;25.63;;;11.10;;
16770;SDS011;8503;52.472;13.344;2022-12-17T06:52:25;25.48;;;11.23;;
16770;SDS011;8503;52.472;13.344;2022-12-17T06:54:05;26.30;;;11.03;;
16770;SDS011;8503;52.472;13.344;2022-12-17T06:55:55;21.55;;;10.30;;
16770;SDS011;8503;52.472;13.344;2022-12-17T06:57:37;32.55;;;12.23;;
16770;SDS011;8503;52.472;13.344;2022-12-17T06:59:18;25.08;;;11.07;;
16770;SDS011;8503;52.472;13.344;2022-12-17T07:00:59;21.00;;;9.20;;
16770;SDS011;8503;52.472;13.344;2022-12-17T07:02:41;22.73;;;9.88;;
16770;SDS011;8503;52.472;13.344;2022-12-17T07:04:22;22.80;;;9.70;;
16770;SDS011;8503;52.472;13.344;2022-12-17T07:06:03;25.85;;;10.98;;
16770;SDS011;8503;52.472;13.344;2022-12-17T07:07:44;20.63;;;10.13;;
16770;SDS011;8503;52.472;13.344;2022-12-17T07:09:25;29.07;;;11.00;;
16770;SDS011;8503;52.472;13.344;2022-12-17T07:11:06;26.97;;;11.93;;
16770;SDS011;8503;52.472;13.344;2022-12-17T07:12:47;26.38;;;11.45;;
16770;SDS011;8503;52.472;13.344;2022-12-17T07:14:28;26.10;;;11.50;;
16770;SDS011;8503;52.472;13.344;2022-12-17T07:16:09;25.92;;;10.70;;
16770;SDS011;8503;52.472;13.344;2022-12-17T07:17:55;29.67;;;12.70;;
16770;SDS011;8503;52.472;13.344;2022-12-17T07:19:37;30.60;;;12.67;;
16770;SDS011;8503;52.472;13.344;2022-12-17T07:21:17;28.43;;;12.53;;
16770;SDS011;8503;52.472;13.344;2022-12-17T07:22:58;32.67;;;12.77;;
16770;SDS011;8503;52.472;13.344;2022-12-17T07:24:39;32.35;;;13.18;;
16770;SDS011;8503;52.472;13.344;2022-12-17T07:26:20;25.98;;;10.73;;
16770;SDS011;8503;52.472;13.344;2022-12-17T07:28:01;29.83;;;10.63;;
16770;SDS011;8503;52.472;13.344;2022-12-17T07:29:42;30.93;;;11.63;;
16770;SDS011;8503;52.472;13.344;2022-12-17T07:31:23;29.45;;;12.25;;
16770;SDS011;8503;52.472;13.344;2022-12-17T07:33:20;26.42;;;12.10;;
16770;SDS011;8503;52.472;13.344;2022-12-17T07:35:01;29.05;;;11.50;;
16770;SDS011;8503;52.472;13.344;2022-12-17T07:36:42;32.15;;;13.30;;
16770;SDS011;8503;52.472;13.344;2022-12-17T07:38:23;29.33;;;11.73;;
16770;SDS011;8503;52.472;13.344;2022-12-17T07:40:05;27.55;;;12.32;;
16770;SDS011;8503;52.472;13.344;2022-12-17T07:41:47;29.55;;;14.25;;
16770;SDS011;8503;52.472;13.344;2022-12-17T07:43:28;30.40;;;13.77;;
16770;SDS011;8503;52.472;13.344;2022-12-17T07:45:13;28.25;;;12.82;;
16770;SDS011;8503;52.472;13.344;2022-12-17T07:46:54;30.02;;;13.13;;
16770;SDS011;8503;52.472;13.344;2022-12-17T07:48:36;37.75;;;12.60;;
16770;SDS011;8503;52.472;13.344;2022-12-17T07:50:18;34.35;;;12.93;;
16770;SDS011;8503;52.472;13.344;2022-12-17T07:51:58;29.35;;;12.20;;
16770;SDS011;8503;52.472;13.344;2022-12-17T07:53:39;26.92;;;11.43;;
16770;SDS011;8503;52.472;13.344;2022-12-17T07:55:21;35.25;;;13.00;;
16770;SDS011;8503;52.472;13.344;2022-12-17T07:57:02;27.77;;;12.93;;
16770;SDS011;8503;52.472;13.344;2022-12-17T07:58:43;27.30;;;12.33;;
16770;SDS011;8503;52.472;13.344;2022-12-17T08:00:24;26.52;;;11.75;;
16770;SDS011;8503;52.472;13.344;2022-12-17T08:02:09;28.13;;;12.38;;
16770;SDS011;8503;52.472;13.344;2022-12-17T08:03:52;26.63;;;11.00;;
16770;SDS011;8503;52.472;13.344;2022-12-17T08:05:33;28.23;;;12.45;;
16770;SDS011;8503;52.472;13.344;2022-12-17T08:07:14;30.25;;;12.15;;
16770;SDS011;8503;52.472;13.344;2022-12-17T08:08:55;26.63;;;12.38;;
16770;SDS011;8503;52.472;13.344;2022-12-17T08:10:36;33.22;;;11.65;;
16770;SDS011;8503;52.472;13.344;2022-12-17T08:12:17;27.95;;;12.80;;
16770;SDS011;8503;52.472;13.344;2022-12-17T08:13:58;29.27;;;12.10;;
16770;SDS011;8503;52.472;13.344;2022-12-17T08:15:39;33.03;;;12.10;;
16770;SDS011;8503;52.472;13.344;2022-12-17T08:17:20;25.60;;;11.50;;
16770;SDS011;8503;52.472;13.344;2022-12-17T08:19:03;23.13;;;10.90;;
16770;SDS011;8503;52.472;13.344;2022-12-17T08:20:44;27.70;;;10.73;;
16770;SDS011;8503;52.472;13.344;2022-12-17T08:22:25;27.00;;;11.07;;
16770;SDS011;8503;52.472;13.344;2022-12-17T08:24:06;23.50;;;10.60;;
16770;SDS011;8503;52.472;13.344;2022-12-17T08:25:47;23.05;;;11.05;;
16770;SDS011;8503;52.472;13.344;2022-12-17T08:27:28;29.05;;;11.00;;
16770;SDS011;8503;52.472;13.344;2022-12-17T08:29:09;30.33;;;12.30;;
16770;SDS011;8503;52.472;13.344;2022-12-17T08:30:52;27.48;;;12.05;;
16770;SDS011;8503;52.472;13.344;2022-12-17T08:32:33;23.92;;;10.70;;
16770;SDS011;8503;52.472;13.344;2022-12-17T08:34:15;26.83;;;11.43;;
16770;SDS011;8503;52.472;13.344;2022-12-17T08:35:57;29.35;;;12.27;;
16770;SDS011;8503;52.472;13.344;2022-12-17T08:37:37;35.17;;;11.75;;
16770;SDS011;8503;52.472;13.344;2022-12-17T08:39:19;22.80;;;11.32;;
16770;SDS011;8503;52.472;13.344;2022-12-17T08:41:00;24.92;;;11.38;;
16770;SDS011;8503;52.472;13.344;2022-12-17T08:42:41;27.30;;;10.77;;
16770;SDS011;8503;52.472;13.344;2022-12-17T08:44:22;28.48;;;12.18;;
16770;SDS011;8503;52.472;13.344;2022-12-17T08:46:03;32.70;;;12.07;;
16770;SDS011;8503;52.472;13.344;2022-12-17T08:47:44;24.88;;;11.57;;
16770;SDS011;8503;52.472;13.344;2022-12-17T08:49:27;27.40;;;11.70;;
16770;SDS011;8503;52.472;13.344;2022-12-17T08:51:08;28.33;;;11.23;;
16770;SDS011;8503;52.472;13.344;2022-12-17T08:52:55;20.60;;;10.25;;
16770;SDS011;8503;52.472;13.344;2022-12-17T08:54:37;31.42;;;12.15;;
16770;SDS011;8503;52.472;13.344;2022-12-17T08:56:17;22.50;;;11.10;;
16770;SDS011;8503;52.472;13.344;2022-12-17T08:57:58;22.40;;;10.77;;
16770;SDS011;8503;52.472;13.344;2022-12-17T08:59:39;27.35;;;11.82;;
16770;SDS011;8503;52.472;13.344;2022-12-17T09:01:20;20.33;;;9.80;;
16770;SDS011;8503;52.472;13.344;2022-12-17T09:03:02;28.55;;;11.50;;
16770;SDS011;8503;52.472;13.344;2022-12-17T09:04:44;24.10;;;11.43;;
16770;SDS011;8503;52.472;13.344;2022-12-17T09:06:25;23.13;;;9.43;;
16770;SDS011;8503;52.472;13.344;2022-12-17T09:08:06;21.75;;;9.85;;
16770;SDS011;8503;52.472;13.344;2022-12-17T09:09:44;27.90;;;11.95;;
16770;SDS011;8503;52.472;13.344;2022-12-17T09:11:25;28.63;;;11.18;;
16770;SDS011;8503;52.472;13.344;2022-12-17T09:13:06;24.83;;;11.38;;
16770;SDS011;8503;52.472;13.344;2022-12-17T09:14:47;21.75;;;10.60;;
16770;SDS011;8503;52.472;13.344;2022-12-17T09:16:28;22.58;;;10.35;;
16770;SDS011;8503;52.472;13.344;2022-12-17T09:18:09;23.73;;;10.73;;
16770;SDS011;8503;52.472;13.344;2022-12-17T09:19:51;31.33;;;12.30;;
16770;SDS011;8503;52.472;13.344;2022-12-17T09:21:32;23.98;;;11.73;;
16770;SDS011;8503;52.472;13.344;2022-12-17T09:23:14;23.73;;;11.30;;
16770;SDS011;8503;52.472;13.344;2022-12-17T09:24:55;28.17;;;11.75;;
16770;SDS011;8503;52.472;13.344;2022-12-17T09:26:36;26.55;;;11.90;;
16770;SDS011;8503;52.472;13.344;2022-12-17T09:28:17;25.75;;;12.38;;
16770;SDS011;8503;52.472;13.344;2022-12-17T09:29:58;29.10;;;12.73;;
16770;SDS011;8503;52.472;13.344;2022-12-17T09:31:39;30.02;;;11.88;;
16770;SDS011;8503;52.472;13.344;2022-12-17T09:33:26;26.33;;;12.35;;
16770;SDS011;8503;52.472;13.344;2022-12-17T09:35:08;32.33;;;12.45;;
16770;SDS011;8503;52.472;13.344;2022-12-17T09:36:51;32.13;;;13.65;;
16770;SDS011;8503;52.472;13.344;2022-12-17T09:38:32;30.95;;;13.10;;
16770;SDS011;8503;52.472;13.344;2022-12-17T09:40:14;26.95;;;12.55;;
16770;SDS011;8503;52.472;13.344;2022-12-17T09:41:56;24.77;;;12.27;;
16770;SDS011;8503;52.472;13.344;2022-12-17T09:43:42;31.40;;;12.02;;
16770;SDS011;8503;52.472;13.344;2022-12-17T09:45:27;25.60;;;12.10;;
16770;SDS011;8503;52.472;13.344;2022-12-17T09:47:14;25.42;;;12.20;;
16770;SDS011;8503;52.472;13.344;2022-12-17T09:49:03;27.92;;;11.88;;
16770;SDS011;8503;52.472;13.344;2022-12-17T09:50:50;28.77;;;12.85;;
16770;SDS011;8503;52.472;13.344;2022-12-17T09:52:32;25.67;;;12.00;;
16770;SDS011;8503;52.472;13.344;2022-12-17T09:54:18;34.78;;;12.80;;
16770;SDS011;8503;52.472;13.344;2022-12-17T09:56:01;30.67;;;12.15;;
16770;SDS011;8503;52.472;13.344;2022-12-17T09:57:43;31.58;;;13.10;;